Time;durP1;ratioP1;P1;durP2;ratioP2;P2;SDS_P1;SDS_P2;PMS_P1;PMS_P2;Temp;Humidity;BMP_temperature;BMP_pressure;BME280_temperature;BME280_humidity;BME280_pressure;Samples;Min_cycle;Max_cycle;Signal;HPM_P1;HPM_P2
2021/03/02 00:01:55;;;;;;;115.15;37.58;;;;;;;;;;4999785;28;20074;-79
2021/03/02 00:04:22;;;;;;;119.50;40.60;;;;;;;;;;4999890;28;20512;-74
2021/03/02 00:06:50;;;;;;;131.70;41.63;;;;;;;;;;4996635;28;20149;-75
2021/03/02 00:09:17;;;;;;;119.82;39.53;;;;;;;;;;5004095;28;20081;-73
2021/03/02 00:11:44;;;;;;;114.13;39.10;;;;;;;;;;4995146;28;20141;-74
2021/03/02 00:14:11;;;;;;;117.57;39.10;;;;;;;;;;4984512;28;20054;-74
2021/03/02 00:16:38;;;;;;;119.45;39.80;;;;;;;;;;4997980;28;20042;-74
2021/03/02 00:19:09;;;;;;;120.20;39.38;;;;;;;;;;5000464;28;20160;-75
2021/03/02 00:21:40;;;;;;;111.22;38.08;;;;;;;;;;4999611;28;20062;-74
2021/03/02 00:24:10;;;;;;;104.72;38.60;;;;;;;;;;5001242;28;21348;-75
2021/03/02 00:26:37;;;;;;;131.95;41.20;;;;;;;;;;5007700;28;20358;-75
2021/03/02 00:29:04;;;;;;;110.80;37.58;;;;;;;;;;4992793;28;20073;-75
2021/03/02 00:31:34;;;;;;;119.88;39.40;;;;;;;;;;5005023;28;20148;-75
2021/03/02 00:34:01;;;;;;;119.63;39.25;;;;;;;;;;5008216;28;20046;-74
2021/03/02 00:36:27;;;;;;;121.88;41.00;;;;;;;;;;5005537;28;20464;-75
2021/03/02 00:38:53;;;;;;;117.03;39.17;;;;;;;;;;5009255;28;20405;-74
2021/03/02 00:41:19;;;;;;;107.22;38.70;;;;;;;;;;4998716;28;20273;-74
2021/03/02 00:43:46;;;;;;;105.43;39.00;;;;;;;;;;5008493;28;20081;-74
2021/03/02 00:46:12;;;;;;;112.63;39.85;;;;;;;;;;5005012;28;20053;-74
2021/03/02 00:48:38;;;;;;;112.93;39.33;;;;;;;;;;5003712;28;20080;-76
2021/03/02 00:51:04;;;;;;;105.13;38.47;;;;;;;;;;5003002;28;20042;-74
2021/03/02 00:53:30;;;;;;;111.30;39.65;;;;;;;;;;5000532;28;20050;-74
2021/03/02 00:55:57;;;;;;;112.03;39.40;;;;;;;;;;5005711;28;20085;-75
2021/03/02 00:58:23;;;;;;;103.30;38.10;;;;;;;;;;5003852;28;20430;-74
2021/03/02 01:00:49;;;;;;;108.28;40.42;;;;;;;;;;5002260;28;20405;-74
2021/03/02 01:03:15;;;;;;;102.53;39.47;;;;;;;;;;4995174;28;20042;-73
2021/03/02 01:05:42;;;;;;;98.80;37.90;;;;;;;;;;5005933;28;20121;-74
2021/03/02 01:08:08;;;;;;;96.60;37.42;;;;;;;;;;4996838;28;20049;-75
2021/03/02 01:10:35;;;;;;;92.20;39.13;;;;;;;;;;4986675;28;20366;-75
2021/03/02 01:13:01;;;;;;;92.53;37.97;;;;;;;;;;5004715;28;20048;-74
2021/03/02 01:15:27;;;;;;;82.70;36.15;;;;;;;;;;4998502;28;20528;-73
2021/03/02 01:17:53;;;;;;;94.97;39.13;;;;;;;;;;4997950;28;20042;-74
2021/03/02 01:20:19;;;;;;;92.00;36.75;;;;;;;;;;5004282;28;20105;-74
2021/03/02 01:22:46;;;;;;;93.70;38.03;;;;;;;;;;5010022;28;20097;-74
2021/03/02 01:25:13;;;;;;;94.55;38.75;;;;;;;;;;5006625;28;20077;-73
2021/03/02 01:27:39;;;;;;;91.32;37.33;;;;;;;;;;5003370;28;20618;-74
2021/03/02 01:30:09;;;;;;;97.63;39.92;;;;;;;;;;5001354;28;20702;-74
2021/03/02 01:32:36;;;;;;;100.20;38.10;;;;;;;;;;5006123;28;20378;-74
2021/03/02 01:35:05;;;;;;;89.40;37.97;;;;;;;;;;5006563;28;20429;-74
2021/03/02 01:37:31;;;;;;;85.32;36.55;;;;;;;;;;4996634;28;20404;-73
2021/03/02 01:39:57;;;;;;;94.25;38.70;;;;;;;;;;5001360;28;20042;-73
2021/03/02 01:42:23;;;;;;;97.90;38.88;;;;;;;;;;5002841;28;20034;-74
2021/03/02 01:44:49;;;;;;;94.68;39.08;;;;;;;;;;5003837;28;20046;-74
2021/03/02 01:47:16;;;;;;;95.18;38.97;;;;;;;;;;5003841;28;20050;-74
2021/03/02 01:49:42;;;;;;;93.30;36.97;;;;;;;;;;4993817;28;20030;-74
2021/03/02 01:52:08;;;;;;;103.90;39.97;;;;;;;;;;4993637;28;20121;-72
2021/03/02 01:54:36;;;;;;;117.75;41.75;;;;;;;;;;5001085;28;20110;-73
2021/03/02 01:57:02;;;;;;;118.15;42.53;;;;;;;;;;5000225;28;20120;-74
2021/03/02 01:59:28;;;;;;;109.90;41.13;;;;;;;;;;4973708;28;20061;-74
2021/03/02 02:01:57;;;;;;;109.50;41.13;;;;;;;;;;4999593;28;20054;-75
2021/03/02 02:04:25;;;;;;;116.90;42.05;;;;;;;;;;5003057;28;20131;-73
2021/03/02 02:06:58;;;;;;;114.35;42.88;;;;;;;;;;4992259;28;20043;-74
2021/03/02 02:09:24;;;;;;;110.13;39.97;;;;;;;;;;5002764;28;20089;-74
2021/03/02 02:11:54;;;;;;;116.65;41.78;;;;;;;;;;5000742;28;20045;-73
2021/03/02 02:14:29;;;;;;;119.80;43.55;;;;;;;;;;5005460;28;20103;-73
2021/03/02 02:16:56;;;;;;;119.53;44.03;;;;;;;;;;5000378;28;20050;-73
2021/03/02 02:19:34;;;;;;;114.28;42.25;;;;;;;;;;5004257;28;20596;-73
2021/03/02 02:22:19;;;;;;;117.15;43.97;;;;;;;;;;4984768;28;20062;-72
2021/03/02 02:25:15;;;;;;;125.05;43.95;;;;;;;;;;4983501;28;20068;-73
2021/03/02 02:27:42;;;;;;;117.93;43.60;;;;;;;;;;4952608;28;20051;-73
2021/03/02 02:30:09;;;;;;;106.40;41.58;;;;;;;;;;4981735;28;20054;-74
2021/03/02 02:32:36;;;;;;;112.72;42.58;;;;;;;;;;4978418;28;20046;-75
2021/03/02 02:35:03;;;;;;;109.95;41.65;;;;;;;;;;4984375;28;20466;-73
2021/03/02 02:37:32;;;;;;;114.40;43.53;;;;;;;;;;4979599;28;20481;-75
2021/03/02 02:39:58;;;;;;;114.03;42.83;;;;;;;;;;4977146;28;20548;-75
2021/03/02 02:42:26;;;;;;;111.65;41.08;;;;;;;;;;4972446;28;20042;-74
2021/03/02 02:44:53;;;;;;;114.18;42.88;;;;;;;;;;4982634;28;20054;-73
2021/03/02 02:47:20;;;;;;;117.30;42.78;;;;;;;;;;4974529;28;20043;-73
2021/03/02 02:49:48;;;;;;;118.18;43.05;;;;;;;;;;4987686;28;20046;-74
2021/03/02 02:52:17;;;;;;;113.88;43.10;;;;;;;;;;4983732;28;20046;-73
2021/03/02 02:54:45;;;;;;;111.03;42.95;;;;;;;;;;4976096;28;20492;-74
2021/03/02 02:57:14;;;;;;;113.53;41.67;;;;;;;;;;4977081;28;20073;-74
2021/03/02 02:59:40;;;;;;;108.38;42.20;;;;;;;;;;4979057;28;20401;-75
2021/03/02 03:02:09;;;;;;;100.88;41.28;;;;;;;;;;4987342;28;20112;-74
2021/03/02 03:04:44;;;;;;;102.30;41.00;;;;;;;;;;4982108;28;20038;-74
2021/03/02 03:07:16;;;;;;;105.60;40.47;;;;;;;;;;4974201;28;20502;-74
2021/03/02 03:09:43;;;;;;;106.88;41.22;;;;;;;;;;4982586;28;20121;-74
2021/03/02 03:12:12;;;;;;;108.72;40.80;;;;;;;;;;4978523;28;20117;-74
2021/03/02 03:14:42;;;;;;;116.00;42.90;;;;;;;;;;4986383;28;20109;-73
2021/03/02 03:17:09;;;;;;;112.55;41.15;;;;;;;;;;4978602;28;20047;-73
2021/03/02 03:19:36;;;;;;;109.05;40.30;;;;;;;;;;4972987;28;20049;-74
2021/03/02 03:22:03;;;;;;;106.45;40.92;;;;;;;;;;4984476;28;20351;-74
2021/03/02 03:24:29;;;;;;;115.93;43.83;;;;;;;;;;4999328;28;20125;-75
2021/03/02 03:26:57;;;;;;;121.50;43.55;;;;;;;;;;4997873;28;20412;-74
2021/03/02 03:29:24;;;;;;;113.95;41.55;;;;;;;;;;5003855;28;20047;-74
2021/03/02 03:31:50;;;;;;;118.97;42.53;;;;;;;;;;4995211;28;20465;-74
2021/03/02 03:34:16;;;;;;;115.80;43.17;;;;;;;;;;5001441;28;20132;-74
2021/03/02 03:36:43;;;;;;;111.72;42.40;;;;;;;;;;5004452;28;20038;-73
2021/03/02 03:39:09;;;;;;;107.22;42.72;;;;;;;;;;4997382;28;20048;-74
2021/03/02 03:41:36;;;;;;;117.82;43.85;;;;;;;;;;5008540;28;20091;-74
2021/03/02 03:44:02;;;;;;;123.78;43.03;;;;;;;;;;5000530;28;20046;-74
2021/03/02 03:46:28;;;;;;;122.57;45.03;;;;;;;;;;5000542;28;20042;-75
2021/03/02 03:48:54;;;;;;;136.70;45.70;;;;;;;;;;5003208;28;20053;-74
2021/03/02 03:51:23;;;;;;;124.00;44.58;;;;;;;;;;5006285;28;20042;-74
2021/03/02 03:53:50;;;;;;;98.57;40.67;;;;;;;;;;5004504;28;20050;-75
2021/03/02 03:56:17;;;;;;;120.32;42.33;;;;;;;;;;5003397;28;20521;-73
2021/03/02 03:58:43;;;;;;;113.82;42.28;;;;;;;;;;5002727;28;20050;-74
2021/03/02 04:01:10;;;;;;;113.30;43.15;;;;;;;;;;5003136;28;20048;-74
2021/03/02 04:03:37;;;;;;;122.10;43.40;;;;;;;;;;5002188;28;20065;-75
2021/03/02 04:06:04;;;;;;;113.93;42.53;;;;;;;;;;4988926;28;20034;-74
2021/03/02 04:08:30;;;;;;;105.75;41.83;;;;;;;;;;5001318;28;20046;-74
2021/03/02 04:10:58;;;;;;;122.60;42.97;;;;;;;;;;4994921;28;20057;-74
2021/03/02 04:13:26;;;;;;;115.03;42.53;;;;;;;;;;4998006;28;20042;-74
2021/03/02 04:15:52;;;;;;;117.15;43.55;;;;;;;;;;5001302;28;20240;-73
2021/03/02 04:18:19;;;;;;;130.80;43.38;;;;;;;;;;5001109;28;20739;-74
2021/03/02 04:20:45;;;;;;;128.10;45.83;;;;;;;;;;4992647;28;20059;-74
2021/03/02 04:23:12;;;;;;;128.38;45.40;;;;;;;;;;5001880;28;20054;-73
2021/03/02 04:25:38;;;;;;;134.20;46.40;;;;;;;;;;5006972;28;20180;-74
2021/03/02 04:28:05;;;;;;;117.63;42.33;;;;;;;;;;5009392;28;20088;-74
2021/03/02 04:30:31;;;;;;;124.05;44.55;;;;;;;;;;5004325;28;20038;-74
2021/03/02 04:32:58;;;;;;;125.82;43.53;;;;;;;;;;5002307;28;20097;-73
2021/03/02 04:35:24;;;;;;;121.85;45.05;;;;;;;;;;5009436;28;20042;-72
2021/03/02 04:37:50;;;;;;;126.55;45.78;;;;;;;;;;5011268;28;20120;-74
2021/03/02 04:40:17;;;;;;;126.78;46.15;;;;;;;;;;5009728;28;20543;-74
2021/03/02 04:42:44;;;;;;;143.90;49.08;;;;;;;;;;5002103;28;20512;-74
2021/03/02 04:45:11;;;;;;;132.43;46.60;;;;;;;;;;5002526;28;20064;-73
2021/03/02 04:47:38;;;;;;;141.82;47.95;;;;;;;;;;5004837;28;20456;-73
2021/03/02 04:50:05;;;;;;;134.20;45.22;;;;;;;;;;5003084;28;20071;-74
2021/03/02 04:52:31;;;;;;;131.77;46.25;;;;;;;;;;5007169;28;20062;-73
2021/03/02 04:54:57;;;;;;;131.98;44.88;;;;;;;;;;4985902;28;20422;-74
2021/03/02 04:57:24;;;;;;;136.07;46.20;;;;;;;;;;5001840;28;20045;-74
2021/03/02 04:59:50;;;;;;;167.25;50.55;;;;;;;;;;4990145;28;20042;-73
2021/03/02 05:02:16;;;;;;;157.23;47.33;;;;;;;;;;5001005;28;20096;-74
2021/03/02 05:04:42;;;;;;;180.15;53.60;;;;;;;;;;5008553;28;20116;-74
2021/03/02 05:07:09;;;;;;;163.90;50.67;;;;;;;;;;5003538;28;20057;-74
2021/03/02 05:09:35;;;;;;;151.77;49.17;;;;;;;;;;4988847;28;20041;-73
2021/03/02 05:12:01;;;;;;;170.23;53.15;;;;;;;;;;4986943;28;20103;-74
2021/03/02 05:14:28;;;;;;;157.52;47.50;;;;;;;;;;4992907;28;20473;-72
2021/03/02 05:16:54;;;;;;;143.50;45.90;;;;;;;;;;5004777;28;20478;-74
2021/03/02 05:19:20;;;;;;;146.25;50.05;;;;;;;;;;4992149;28;20499;-74
2021/03/02 05:21:46;;;;;;;141.32;47.42;;;;;;;;;;5008368;28;20053;-74
2021/03/02 05:24:13;;;;;;;147.23;48.67;;;;;;;;;;4990089;28;20044;-74
2021/03/02 05:26:39;;;;;;;154.52;49.30;;;;;;;;;;4994242;28;20046;-74
2021/03/02 05:29:05;;;;;;;161.07;51.38;;;;;;;;;;5006828;28;20116;-72
2021/03/02 05:31:32;;;;;;;168.38;51.97;;;;;;;;;;5000376;28;20048;-72
2021/03/02 05:33:58;;;;;;;172.70;52.47;;;;;;;;;;5002600;28;20049;-73
2021/03/02 05:36:24;;;;;;;189.45;53.20;;;;;;;;;;4998598;28;20038;-74
2021/03/02 05:38:50;;;;;;;168.68;50.63;;;;;;;;;;5000145;28;20077;-74
2021/03/02 05:41:16;;;;;;;159.43;49.88;;;;;;;;;;4993870;28;20046;-73
2021/03/02 05:43:43;;;;;;;149.85;50.60;;;;;;;;;;4986391;28;20057;-73
2021/03/02 05:46:10;;;;;;;154.60;46.75;;;;;;;;;;4991146;28;20413;-74
2021/03/02 05:48:40;;;;;;;141.02;48.90;;;;;;;;;;4998083;28;20042;-74
2021/03/02 05:51:06;;;;;;;139.43;46.72;;;;;;;;;;4994400;28;20356;-75
2021/03/02 05:53:33;;;;;;;134.65;47.03;;;;;;;;;;5001962;28;20037;-75
2021/03/02 05:55:59;;;;;;;128.02;45.13;;;;;;;;;;4988377;28;20397;-76
2021/03/02 05:58:25;;;;;;;139.43;46.47;;;;;;;;;;5004795;28;20140;-75
2021/03/02 06:00:53;;;;;;;147.80;48.10;;;;;;;;;;4990748;28;20050;-75
2021/03/02 06:03:20;;;;;;;144.45;47.50;;;;;;;;;;5011512;28;20045;-74
2021/03/02 06:05:46;;;;;;;147.70;49.45;;;;;;;;;;4993122;28;20048;-75
2021/03/02 06:08:12;;;;;;;156.80;49.35;;;;;;;;;;5010655;28;20044;-75
2021/03/02 06:10:38;;;;;;;157.90;48.65;;;;;;;;;;5011498;28;20488;-74
2021/03/02 06:13:05;;;;;;;172.43;48.42;;;;;;;;;;4992552;28;20046;-76
2021/03/02 06:15:35;;;;;;;178.68;50.70;;;;;;;;;;4993986;28;20033;-77
2021/03/02 06:18:15;;;;;;;161.18;48.33;;;;;;;;;;4992093;28;20200;-75
2021/03/02 06:20:42;;;;;;;166.02;49.63;;;;;;;;;;4999914;28;20042;-76
2021/03/02 06:23:23;;;;;;;155.80;46.33;;;;;;;;;;5011769;28;20255;-75
2021/03/02 06:25:49;;;;;;;173.82;48.53;;;;;;;;;;4992818;28;20065;-78
2021/03/02 06:28:33;;;;;;;152.50;48.10;;;;;;;;;;4994125;28;20049;-77
2021/03/02 06:31:01;;;;;;;141.65;46.63;;;;;;;;;;5010777;28;20373;-74
2021/03/02 06:33:27;;;;;;;161.48;48.72;;;;;;;;;;5012313;28;20100;-74
2021/03/02 06:35:56;;;;;;;157.32;47.92;;;;;;;;;;5010386;28;20050;-74
2021/03/02 06:38:32;;;;;;;155.02;46.67;;;;;;;;;;5011325;28;20409;-75
2021/03/02 06:40:59;;;;;;;158.68;46.72;;;;;;;;;;5010540;28;20057;-73
2021/03/02 06:43:34;;;;;;;163.52;46.72;;;;;;;;;;5011164;28;20050;-73
2021/03/02 06:46:01;;;;;;;143.05;47.05;;;;;;;;;;5001469;28;20164;-74
2021/03/02 06:48:27;;;;;;;143.60;44.47;;;;;;;;;;5012963;28;20061;-75
2021/03/02 06:50:53;;;;;;;174.10;47.75;;;;;;;;;;5019709;28;20041;-74
2021/03/02 06:53:20;;;;;;;177.75;49.20;;;;;;;;;;5009338;28;20076;-75
2021/03/02 06:55:46;;;;;;;150.60;47.70;;;;;;;;;;4998233;28;20046;-77
2021/03/02 06:58:19;;;;;;;173.38;46.85;;;;;;;;;;5020223;28;20046;-76
2021/03/02 07:00:53;;;;;;;148.93;45.83;;;;;;;;;;5012131;28;20491;-76
2021/03/02 07:03:37;;;;;;;141.00;46.22;;;;;;;;;;5031849;28;20057;-77
2021/03/02 07:06:07;;;;;;;137.30;43.47;;;;;;;;;;5025086;28;20096;-75
2021/03/02 07:08:34;;;;;;;159.20;46.20;;;;;;;;;;5011642;28;20038;-77
2021/03/02 07:11:01;;;;;;;128.63;42.50;;;;;;;;;;5014972;28;20394;-76
2021/03/02 07:13:31;;;;;;;137.93;45.40;;;;;;;;;;5014447;28;20053;-80
2021/03/02 07:15:58;;;;;;;139.77;46.17;;;;;;;;;;5007389;28;20096;-79
2021/03/02 07:18:28;;;;;;;135.60;42.03;;;;;;;;;;5016046;28;20085;-80
2021/03/02 07:20:59;;;;;;;127.43;41.22;;;;;;;;;;5014936;28;20038;-79
2021/03/02 07:23:26;;;;;;;161.75;47.63;;;;;;;;;;5015536;28;20058;-78
2021/03/02 07:25:55;;;;;;;133.63;43.15;;;;;;;;;;5014532;28;20405;-78
2021/03/02 07:28:24;;;;;;;145.60;44.78;;;;;;;;;;5014961;28;20104;-75
2021/03/02 07:30:52;;;;;;;140.77;44.38;;;;;;;;;;5003527;28;20484;-78
2021/03/02 07:33:19;;;;;;;139.68;46.65;;;;;;;;;;5016014;28;20046;-79
2021/03/02 07:35:46;;;;;;;139.60;46.33;;;;;;;;;;5013009;28;20460;-78
2021/03/02 07:38:13;;;;;;;154.20;47.85;;;;;;;;;;5014584;28;20121;-79
2021/03/02 07:40:44;;;;;;;137.68;44.05;;;;;;;;;;4997078;28;20069;-79
2021/03/02 07:43:28;;;;;;;160.45;45.10;;;;;;;;;;5014285;28;20146;-75
2021/03/02 07:45:55;;;;;;;145.80;42.88;;;;;;;;;;5014037;28;20054;-75
2021/03/02 07:48:31;;;;;;;136.18;42.10;;;;;;;;;;4997714;28;20136;-76
2021/03/02 07:51:17;;;;;;;144.82;42.90;;;;;;;;;;5014466;28;20543;-75
2021/03/02 07:53:43;;;;;;;140.20;40.88;;;;;;;;;;5015510;28;20482;-75
2021/03/02 07:56:15;;;;;;;151.23;42.10;;;;;;;;;;5013631;28;20056;-75
2021/03/02 07:58:42;;;;;;;125.05;41.58;;;;;;;;;;5013573;28;20485;-75
2021/03/02 08:01:18;;;;;;;120.22;40.83;;;;;;;;;;4995802;28;20125;-79
2021/03/02 08:03:45;;;;;;;110.80;39.33;;;;;;;;;;5014971;28;20128;-75
2021/03/02 08:06:20;;;;;;;100.32;36.92;;;;;;;;;;5013985;28;20065;-78
2021/03/02 08:08:47;;;;;;;97.32;36.20;;;;;;;;;;5014476;28;20041;-74
2021/03/02 08:11:32;;;;;;;107.72;37.90;;;;;;;;;;5014275;28;20116;-75
2021/03/02 08:13:59;;;;;;;100.57;38.38;;;;;;;;;;5014389;28;20045;-74
2021/03/02 08:16:55;;;;;;;90.22;36.83;;;;;;;;;;5014634;28;20050;-76
2021/03/02 08:19:32;;;;;;;102.47;38.75;;;;;;;;;;4988555;28;20050;-77
2021/03/02 08:21:59;;;;;;;88.55;35.13;;;;;;;;;;5013426;28;20504;-77
2021/03/02 08:24:43;;;;;;;83.35;33.85;;;;;;;;;;5014690;28;20045;-75
2021/03/02 08:27:10;;;;;;;94.20;35.63;;;;;;;;;;5013464;28;20417;-76
2021/03/02 08:29:47;;;;;;;98.30;37.30;;;;;;;;;;5014539;28;20048;-74
2021/03/02 08:32:13;;;;;;;97.80;38.25;;;;;;;;;;4996693;28;20046;-76
2021/03/02 08:34:39;;;;;;;85.60;36.55;;;;;;;;;;5014489;28;20120;-76
2021/03/02 08:37:05;;;;;;;87.93;36.22;;;;;;;;;;5013033;28;20072;-75
2021/03/02 08:39:32;;;;;;;79.40;34.72;;;;;;;;;;4993045;28;20034;-75
2021/03/02 08:41:58;;;;;;;84.55;35.65;;;;;;;;;;5010436;28;20038;-75
2021/03/02 08:44:25;;;;;;;76.82;34.38;;;;;;;;;;5014298;28;20052;-73
2021/03/02 08:46:53;;;;;;;80.22;36.33;;;;;;;;;;5013480;28;20046;-75
2021/03/02 08:49:20;;;;;;;79.80;34.17;;;;;;;;;;4995882;28;20068;-73
2021/03/02 08:51:46;;;;;;;73.00;32.40;;;;;;;;;;5013497;28;20121;-71
2021/03/02 08:54:12;;;;;;;70.47;31.35;;;;;;;;;;5012094;28;20041;-72
2021/03/02 08:56:38;;;;;;;75.20;33.83;;;;;;;;;;5013109;28;20041;-73
2021/03/02 08:59:06;;;;;;;80.28;35.40;;;;;;;;;;5013053;28;20056;-73
2021/03/02 09:01:34;;;;;;;75.95;33.67;;;;;;;;;;5013581;28;20041;-73
2021/03/02 09:04:11;;;;;;;74.38;33.17;;;;;;;;;;5012743;28;20066;-71
2021/03/02 09:06:41;;;;;;;79.30;33.13;;;;;;;;;;5010917;28;20038;-72
2021/03/02 09:09:14;;;;;;;81.68;35.20;;;;;;;;;;4995178;28;20168;-75
2021/03/02 09:11:42;;;;;;;76.15;33.85;;;;;;;;;;4998762;28;20113;-76
2021/03/02 09:14:14;;;;;;;67.85;32.88;;;;;;;;;;5008074;28;20065;-75
2021/03/02 09:16:42;;;;;;;63.83;30.50;;;;;;;;;;5008910;28;20056;-75
2021/03/02 09:19:27;;;;;;;59.88;31.27;;;;;;;;;;5011633;28;20041;-76
2021/03/02 09:22:04;;;;;;;66.13;30.88;;;;;;;;;;5013016;28;20129;-75
2021/03/02 09:24:32;;;;;;;61.08;30.95;;;;;;;;;;4993847;28;20045;-75
2021/03/02 09:27:00;;;;;;;63.33;32.03;;;;;;;;;;5006193;28;20540;-75
2021/03/02 09:29:32;;;;;;;63.72;31.83;;;;;;;;;;5012897;28;20042;-75
2021/03/02 09:31:59;;;;;;;60.00;30.52;;;;;;;;;;5011397;28;20044;-77
2021/03/02 09:34:29;;;;;;;60.90;31.65;;;;;;;;;;5013118;28;20169;-73
2021/03/02 09:36:56;;;;;;;59.38;31.15;;;;;;;;;;5012382;28;20172;-71
2021/03/02 09:39:25;;;;;;;66.82;33.10;;;;;;;;;;5012767;28;20058;-73
2021/03/02 09:41:52;;;;;;;68.20;33.40;;;;;;;;;;5013262;28;20045;-73
2021/03/02 09:44:19;;;;;;;60.05;30.27;;;;;;;;;;5013466;28;20041;-77
2021/03/02 09:46:45;;;;;;;68.03;33.83;;;;;;;;;;5013412;28;20524;-76
2021/03/02 09:49:11;;;;;;;61.22;32.72;;;;;;;;;;4980213;28;20088;-74
2021/03/02 09:51:38;;;;;;;54.05;29.60;;;;;;;;;;5011712;28;20041;-75
2021/03/02 09:54:10;;;;;;;59.33;31.17;;;;;;;;;;5012710;28;20046;-75
2021/03/02 09:56:36;;;;;;;54.83;29.77;;;;;;;;;;5013527;28;20061;-77
2021/03/02 09:59:03;;;;;;;56.58;30.15;;;;;;;;;;5013405;28;20038;-78
2021/03/02 10:01:29;;;;;;;54.22;29.65;;;;;;;;;;4990944;28;20054;-78
2021/03/02 10:03:55;;;;;;;53.15;30.00;;;;;;;;;;4993923;28;20400;-78
2021/03/02 10:06:25;;;;;;;49.30;27.98;;;;;;;;;;4992632;28;20133;-77
2021/03/02 10:08:52;;;;;;;54.88;29.23;;;;;;;;;;4990381;28;20049;-82
2021/03/02 10:11:22;;;;;;;49.03;27.83;;;;;;;;;;4993933;28;20473;-82
2021/03/02 10:13:51;;;;;;;50.10;28.98;;;;;;;;;;5002566;28;20046;-84
2021/03/02 10:16:35;;;;;;;51.22;29.60;;;;;;;;;;4990384;28;20389;-82
2021/03/02 10:19:06;;;;;;;54.03;31.02;;;;;;;;;;4989759;28;20545;-85
2021/03/02 10:21:46;;;;;;;50.80;28.05;;;;;;;;;;5009761;28;20429;-81
2021/03/02 10:24:23;;;;;;;54.55;31.13;;;;;;;;;;5012355;28;20049;-79
2021/03/02 10:26:50;;;;;;;47.33;28.90;;;;;;;;;;5007444;28;20065;-81
2021/03/02 10:29:16;;;;;;;49.20;30.17;;;;;;;;;;5004246;28;20109;-79
2021/03/02 10:31:43;;;;;;;47.50;28.27;;;;;;;;;;5012394;28;20041;-76
2021/03/02 10:34:10;;;;;;;49.92;30.00;;;;;;;;;;5011848;28;20124;-78
2021/03/02 10:36:39;;;;;;;49.55;30.20;;;;;;;;;;5012734;28;20072;-77
2021/03/02 10:39:13;;;;;;;49.88;29.70;;;;;;;;;;5011530;28;20046;-76
2021/03/02 10:41:39;;;;;;;45.92;28.00;;;;;;;;;;5008421;28;20050;-78
2021/03/02 10:44:06;;;;;;;47.35;29.45;;;;;;;;;;5011925;28;20048;-77
2021/03/02 10:46:32;;;;;;;47.42;27.73;;;;;;;;;;5012874;28;20048;-77
2021/03/02 10:48:59;;;;;;;39.50;25.85;;;;;;;;;;5012773;28;20121;-77
2021/03/02 10:51:25;;;;;;;41.25;25.42;;;;;;;;;;4988364;28;20054;-74
2021/03/02 10:53:51;;;;;;;42.35;26.13;;;;;;;;;;5011892;28;20048;-81
2021/03/02 10:56:18;;;;;;;45.70;27.75;;;;;;;;;;5011731;28;20044;-76
2021/03/02 10:58:45;;;;;;;43.88;27.48;;;;;;;;;;5012316;28;20077;-77
2021/03/02 11:01:11;;;;;;;44.38;26.85;;;;;;;;;;4994396;28;20050;-82
2021/03/02 11:03:42;;;;;;;41.55;26.08;;;;;;;;;;4994288;28;20378;-77
2021/03/02 11:06:10;;;;;;;45.58;28.27;;;;;;;;;;5009679;28;20042;-76
2021/03/02 11:08:36;;;;;;;40.38;26.77;;;;;;;;;;5011268;28;20038;-77
2021/03/02 11:11:02;;;;;;;44.28;27.67;;;;;;;;;;5008422;28;20042;-84
2021/03/02 11:13:30;;;;;;;45.92;27.80;;;;;;;;;;5011011;28;20096;-76
2021/03/02 11:15:56;;;;;;;49.83;28.45;;;;;;;;;;4982134;28;20497;-77
2021/03/02 11:18:23;;;;;;;45.85;27.55;;;;;;;;;;5010963;28;20049;-76
2021/03/02 11:20:49;;;;;;;44.08;28.92;;;;;;;;;;5011562;28;20485;-77
2021/03/02 11:23:16;;;;;;;43.58;28.73;;;;;;;;;;5011166;28;20064;-75
2021/03/02 11:25:42;;;;;;;43.60;27.83;;;;;;;;;;5012289;28;20084;-75
2021/03/02 11:28:09;;;;;;;39.85;26.50;;;;;;;;;;5011642;28;20030;-75
2021/03/02 11:30:36;;;;;;;40.72;26.00;;;;;;;;;;5011018;28;20049;-75
2021/03/02 11:33:02;;;;;;;37.35;23.67;;;;;;;;;;5010797;28;20115;-75
2021/03/02 11:35:28;;;;;;;37.92;24.95;;;;;;;;;;4988712;28;20570;-78
2021/03/02 11:37:55;;;;;;;38.00;26.20;;;;;;;;;;5005757;28;20061;-80
2021/03/02 11:40:22;;;;;;;40.13;25.70;;;;;;;;;;4991033;28;20053;-77
2021/03/02 11:42:52;;;;;;;39.03;25.88;;;;;;;;;;4990949;28;20078;-80
2021/03/02 11:45:18;;;;;;;41.35;25.70;;;;;;;;;;5010899;28;20049;-79
2021/03/02 11:47:45;;;;;;;39.67;25.13;;;;;;;;;;5010989;28;20539;-77
2021/03/02 11:50:11;;;;;;;40.35;26.10;;;;;;;;;;4992526;28;20103;-77
2021/03/02 11:52:38;;;;;;;39.35;25.83;;;;;;;;;;5011223;28;20049;-75
2021/03/02 11:55:05;;;;;;;37.33;25.75;;;;;;;;;;5010831;28;20038;-75
2021/03/02 11:57:31;;;;;;;36.50;25.17;;;;;;;;;;5014785;28;20045;-77
2021/03/02 11:59:58;;;;;;;39.53;25.65;;;;;;;;;;5003827;28;20042;-77
2021/03/02 12:02:24;;;;;;;41.88;26.17;;;;;;;;;;5012161;28;20046;-78
2021/03/02 12:04:51;;;;;;;41.60;26.73;;;;;;;;;;4987168;28;20041;-80
2021/03/02 12:07:17;;;;;;;40.92;26.67;;;;;;;;;;5012829;28;20050;-81
2021/03/02 12:09:44;;;;;;;39.50;26.08;;;;;;;;;;5007544;28;20117;-75
2021/03/02 12:12:10;;;;;;;38.50;25.75;;;;;;;;;;5010629;28;20052;-75
2021/03/02 12:14:37;;;;;;;41.92;28.48;;;;;;;;;;5013165;28;20129;-75
2021/03/02 12:17:03;;;;;;;41.20;26.83;;;;;;;;;;5013901;28;20046;-75
2021/03/02 12:19:29;;;;;;;44.08;26.65;;;;;;;;;;5012774;28;20054;-75
2021/03/02 12:21:56;;;;;;;41.72;27.67;;;;;;;;;;4995900;28;20046;-74
2021/03/02 12:24:22;;;;;;;42.13;27.15;;;;;;;;;;5006672;28;20054;-76
2021/03/02 12:26:49;;;;;;;38.05;25.70;;;;;;;;;;5011994;28;20038;-76
2021/03/02 12:29:16;;;;;;;38.58;26.20;;;;;;;;;;5013794;28;20050;-73
2021/03/02 12:31:42;;;;;;;37.53;25.52;;;;;;;;;;5012990;28;20093;-74
2021/03/02 12:34:09;;;;;;;38.42;25.48;;;;;;;;;;4996762;28;20046;-75
2021/03/02 12:36:35;;;;;;;36.00;24.15;;;;;;;;;;5012488;28;20233;-74
2021/03/02 12:39:01;;;;;;;35.40;23.40;;;;;;;;;;4977536;28;20417;-73
2021/03/02 12:41:28;;;;;;;36.67;25.02;;;;;;;;;;5014170;28;20397;-74
2021/03/02 12:43:54;;;;;;;36.60;25.20;;;;;;;;;;5013829;28;20046;-76
2021/03/02 12:46:20;;;;;;;36.35;23.92;;;;;;;;;;5013310;28;20049;-74
2021/03/02 12:48:46;;;;;;;37.80;25.00;;;;;;;;;;5014446;28;20069;-77
2021/03/02 12:51:12;;;;;;;33.78;23.20;;;;;;;;;;4996369;28;20434;-77
2021/03/02 12:53:38;;;;;;;38.95;25.25;;;;;;;;;;5013123;28;20034;-75
2021/03/02 12:56:04;;;;;;;37.55;26.00;;;;;;;;;;5013737;28;20065;-73
2021/03/02 12:58:31;;;;;;;39.13;24.80;;;;;;;;;;5012064;28;20045;-74
2021/03/02 13:00:57;;;;;;;39.80;26.10;;;;;;;;;;5013138;28;20045;-74
2021/03/02 13:03:23;;;;;;;35.70;24.50;;;;;;;;;;5013850;28;20062;-74
2021/03/02 13:05:50;;;;;;;40.22;25.90;;;;;;;;;;5014508;28;20053;-73
2021/03/02 13:08:16;;;;;;;36.45;24.50;;;;;;;;;;5013392;28;20046;-73
2021/03/02 13:10:43;;;;;;;36.38;24.85;;;;;;;;;;5013575;28;20057;-74
2021/03/02 13:13:09;;;;;;;42.17;25.73;;;;;;;;;;5013791;28;20054;-74
2021/03/02 13:15:39;;;;;;;36.92;25.50;;;;;;;;;;5013658;28;20042;-74
2021/03/02 13:18:06;;;;;;;38.50;26.35;;;;;;;;;;5014056;28;20124;-74
2021/03/02 13:20:32;;;;;;;35.75;24.55;;;;;;;;;;5012539;28;20113;-79
2021/03/02 13:22:58;;;;;;;37.47;25.60;;;;;;;;;;4992834;28;20087;-79
2021/03/02 13:25:25;;;;;;;36.75;25.25;;;;;;;;;;4990216;28;20066;-78
2021/03/02 13:27:53;;;;;;;39.97;25.67;;;;;;;;;;4992701;28;20042;-79
2021/03/02 13:30:20;;;;;;;38.60;26.15;;;;;;;;;;4992536;28;20038;-75
2021/03/02 13:32:58;;;;;;;38.13;27.30;;;;;;;;;;4994052;28;20490;-74
2021/03/02 13:35:24;;;;;;;38.13;25.65;;;;;;;;;;4992770;28;20544;-75
2021/03/02 13:37:51;;;;;;;39.25;27.52;;;;;;;;;;4989431;28;20057;-75
2021/03/02 13:40:19;;;;;;;37.25;25.95;;;;;;;;;;4993275;28;20054;-75
2021/03/02 13:42:50;;;;;;;39.22;26.60;;;;;;;;;;4993767;28;20051;-75
2021/03/02 13:45:16;;;;;;;34.75;25.98;;;;;;;;;;4994192;28;20043;-76
2021/03/02 13:47:43;;;;;;;41.28;27.05;;;;;;;;;;4993697;28;20053;-74
2021/03/02 13:50:09;;;;;;;34.42;25.17;;;;;;;;;;4993824;28;20042;-75
2021/03/02 13:52:36;;;;;;;34.30;24.95;;;;;;;;;;4992911;28;20125;-74
2021/03/02 13:55:02;;;;;;;33.58;24.40;;;;;;;;;;4993867;28;20048;-75
2021/03/02 13:57:29;;;;;;;38.17;25.35;;;;;;;;;;4992862;28;20042;-75
2021/03/02 13:59:58;;;;;;;37.97;25.85;;;;;;;;;;4993350;28;20042;-76
2021/03/02 14:02:25;;;;;;;34.65;24.45;;;;;;;;;;4992325;28;20069;-74
2021/03/02 14:04:53;;;;;;;34.28;24.95;;;;;;;;;;4992244;28;20112;-74
2021/03/02 14:07:21;;;;;;;33.83;24.70;;;;;;;;;;4986914;28;20092;-74
2021/03/02 14:09:47;;;;;;;34.97;24.88;;;;;;;;;;4993475;28;20035;-75
2021/03/02 14:12:14;;;;;;;32.78;24.15;;;;;;;;;;4993833;28;20034;-76
2021/03/02 14:14:41;;;;;;;33.60;23.50;;;;;;;;;;4992976;28;20046;-75
2021/03/02 14:17:08;;;;;;;34.53;24.92;;;;;;;;;;4993921;28;20054;-75